sensor_id;sensor_type;location;lat;lon;timestamp;temperature;humidity
42097;DHT22;27754;45.414;11.084;2023-10-13T00:01:58;19.20;82.10
42097;DHT22;27754;45.414;11.084;2023-10-13T00:04:26;19.20;82.00
42097;DHT22;27754;45.414;11.084;2023-10-13T00:06:55;19.20;81.90
42097;DHT22;27754;45.414;11.084;2023-10-13T00:09:26;19.20;81.70
42097;DHT22;27754;45.414;11.084;2023-10-13T00:11:59;19.20;81.50
42097;DHT22;27754;45.414;11.084;2023-10-13T00:14:27;19.30;81.30
42097;DHT22;27754;45.414;11.084;2023-10-13T00:17:05;19.30;81.00
42097;DHT22;27754;45.414;11.084;2023-10-13T00:19:34;19.30;80.60
42097;DHT22;27754;45.414;11.084;2023-10-13T00:22:07;19.30;80.10
42097;DHT22;27754;45.414;11.084;2023-10-13T00:24:39;19.40;80.30
42097;DHT22;27754;45.414;11.084;2023-10-13T00:27:19;19.40;80.20
42097;DHT22;27754;45.414;11.084;2023-10-13T00:30:07;19.40;80.00
42097;DHT22;27754;45.414;11.084;2023-10-13T00:32:52;19.40;79.90
42097;DHT22;27754;45.414;11.084;2023-10-13T00:35:24;19.50;79.90
42097;DHT22;27754;45.414;11.084;2023-10-13T00:38:04;19.50;80.10
42097;DHT22;27754;45.414;11.084;2023-10-13T00:40:40;19.50;80.60
42097;DHT22;27754;45.414;11.084;2023-10-13T00:43:07;19.50;81.00
42097;DHT22;27754;45.414;11.084;2023-10-13T00:45:54;19.60;81.10
42097;DHT22;27754;45.414;11.084;2023-10-13T00:48:26;19.60;81.40
42097;DHT22;27754;45.414;11.084;2023-10-13T00:51:03;19.60;81.30
42097;DHT22;27754;45.414;11.084;2023-10-13T00:53:34;19.60;81.50
42097;DHT22;27754;45.414;11.084;2023-10-13T00:56:04;19.50;81.70
42097;DHT22;27754;45.414;11.084;2023-10-13T00:58:35;19.50;81.70
42097;DHT22;27754;45.414;11.084;2023-10-13T01:01:03;19.40;81.50
42097;DHT22;27754;45.414;11.084;2023-10-13T01:03:53;19.40;81.70
42097;DHT22;27754;45.414;11.084;2023-10-13T01:06:29;19.40;81.70
42097;DHT22;27754;45.414;11.084;2023-10-13T01:09:02;19.30;82.00
42097;DHT22;27754;45.414;11.084;2023-10-13T01:11:47;19.30;81.80
42097;DHT22;27754;45.414;11.084;2023-10-13T01:14:15;19.30;81.80
42097;DHT22;27754;45.414;11.084;2023-10-13T01:16:45;19.20;81.80
42097;DHT22;27754;45.414;11.084;2023-10-13T01:19:14;19.20;82.00
42097;DHT22;27754;45.414;11.084;2023-10-13T01:21:44;19.20;81.70
42097;DHT22;27754;45.414;11.084;2023-10-13T01:24:11;19.20;81.90
42097;DHT22;27754;45.414;11.084;2023-10-13T01:26:40;19.20;81.90
42097;DHT22;27754;45.414;11.084;2023-10-13T01:29:09;19.30;81.90
42097;DHT22;27754;45.414;11.084;2023-10-13T01:31:44;19.20;82.10
42097;DHT22;27754;45.414;11.084;2023-10-13T01:34:15;19.30;82.20
42097;DHT22;27754;45.414;11.084;2023-10-13T01:36:52;19.30;82.70
42097;DHT22;27754;45.414;11.084;2023-10-13T01:39:21;19.30;83.00
42097;DHT22;27754;45.414;11.084;2023-10-13T01:41:49;19.30;83.00
42097;DHT22;27754;45.414;11.084;2023-10-13T01:44:24;19.30;83.00
42097;DHT22;27754;45.414;11.084;2023-10-13T01:46:52;19.30;83.10
42097;DHT22;27754;45.414;11.084;2023-10-13T01:49:19;19.40;83.30
42097;DHT22;27754;45.414;11.084;2023-10-13T01:51:49;19.30;83.30
42097;DHT22;27754;45.414;11.084;2023-10-13T01:54:17;19.30;83.50
42097;DHT22;27754;45.414;11.084;2023-10-13T01:56:44;19.40;83.30
42097;DHT22;27754;45.414;11.084;2023-10-13T01:59:12;19.30;83.30
42097;DHT22;27754;45.414;11.084;2023-10-13T02:01:39;19.30;83.30
42097;DHT22;27754;45.414;11.084;2023-10-13T02:04:08;19.30;83.20
42097;DHT22;27754;45.414;11.084;2023-10-13T02:06:37;19.30;83.40
42097;DHT22;27754;45.414;11.084;2023-10-13T02:09:08;19.30;83.50
42097;DHT22;27754;45.414;11.084;2023-10-13T02:11:52;19.30;83.50
42097;DHT22;27754;45.414;11.084;2023-10-13T02:14:23;19.40;83.30
42097;DHT22;27754;45.414;11.084;2023-10-13T02:16:53;19.40;83.10
42097;DHT22;27754;45.414;11.084;2023-10-13T02:19:39;19.40;83.00
42097;DHT22;27754;45.414;11.084;2023-10-13T02:22:14;19.40;82.90
42097;DHT22;27754;45.414;11.084;2023-10-13T02:24:59;19.40;82.90
42097;DHT22;27754;45.414;11.084;2023-10-13T02:27:34;19.30;83.20
42097;DHT22;27754;45.414;11.084;2023-10-13T02:30:08;19.30;83.40
42097;DHT22;27754;45.414;11.084;2023-10-13T02:32:41;19.30;83.50
42097;DHT22;27754;45.414;11.084;2023-10-13T02:35:10;19.30;83.70
42097;DHT22;27754;45.414;11.084;2023-10-13T02:37:42;19.20;84.10
42097;DHT22;27754;45.414;11.084;2023-10-13T02:40:11;19.10;84.00
42097;DHT22;27754;45.414;11.084;2023-10-13T02:42:39;19.10;84.10
42097;DHT22;27754;45.414;11.084;2023-10-13T02:45:09;19.10;84.00
42097;DHT22;27754;45.414;11.084;2023-10-13T02:47:38;19.10;83.70
42097;DHT22;27754;45.414;11.084;2023-10-13T02:50:06;18.90;83.80
42097;DHT22;27754;45.414;11.084;2023-10-13T02:52:39;18.90;84.20
42097;DHT22;27754;45.414;11.084;2023-10-13T02:55:08;18.80;84.50
42097;DHT22;27754;45.414;11.084;2023-10-13T02:57:42;18.80;84.60
42097;DHT22;27754;45.414;11.084;2023-10-13T03:00:09;18.80;84.70
42097;DHT22;27754;45.414;11.084;2023-10-13T03:02:39;18.80;84.80
42097;DHT22;27754;45.414;11.084;2023-10-13T03:05:11;18.70;84.80
42097;DHT22;27754;45.414;11.084;2023-10-13T03:07:40;18.70;84.70
42097;DHT22;27754;45.414;11.084;2023-10-13T03:10:10;18.80;84.50
42097;DHT22;27754;45.414;11.084;2023-10-13T03:12:39;18.80;84.50
42097;DHT22;27754;45.414;11.084;2023-10-13T03:15:07;18.80;84.50
42097;DHT22;27754;45.414;11.084;2023-10-13T03:17:44;18.80;84.60
42097;DHT22;27754;45.414;11.084;2023-10-13T03:20:16;18.70;84.70
42097;DHT22;27754;45.414;11.084;2023-10-13T03:22:52;18.70;84.60
42097;DHT22;27754;45.414;11.084;2023-10-13T03:25:20;18.70;84.60
42097;DHT22;27754;45.414;11.084;2023-10-13T03:28:09;18.70;84.70
42097;DHT22;27754;45.414;11.084;2023-10-13T03:30:43;18.70;84.60
42097;DHT22;27754;45.414;11.084;2023-10-13T03:33:10;18.70;84.60
42097;DHT22;27754;45.414;11.084;2023-10-13T03:35:52;18.60;84.80
42097;DHT22;27754;45.414;11.084;2023-10-13T03:38:21;18.60;84.90
42097;DHT22;27754;45.414;11.084;2023-10-13T03:40:53;18.60;85.00
42097;DHT22;27754;45.414;11.084;2023-10-13T03:43:34;18.60;84.90
42097;DHT22;27754;45.414;11.084;2023-10-13T03:46:12;18.70;84.80
42097;DHT22;27754;45.414;11.084;2023-10-13T03:48:39;18.60;84.90
42097;DHT22;27754;45.414;11.084;2023-10-13T03:51:21;18.70;85.10
42097;DHT22;27754;45.414;11.084;2023-10-13T03:53:48;18.70;85.00
42097;DHT22;27754;45.414;11.084;2023-10-13T03:56:26;18.70;85.10
42097;DHT22;27754;45.414;11.084;2023-10-13T03:58:59;18.70;85.10
42097;DHT22;27754;45.414;11.084;2023-10-13T04:01:32;18.70;85.00
42097;DHT22;27754;45.414;11.084;2023-10-13T04:04:07;18.70;85.20
42097;DHT22;27754;45.414;11.084;2023-10-13T04:06:39;18.80;85.20
42097;DHT22;27754;45.414;11.084;2023-10-13T04:09:19;18.80;84.90
42097;DHT22;27754;45.414;11.084;2023-10-13T04:14:46;18.80;85.10
42097;DHT22;27754;45.414;11.084;2023-10-13T04:17:22;18.80;85.30
42097;DHT22;27754;45.414;11.084;2023-10-13T04:19:55;18.80;85.40
42097;DHT22;27754;45.414;11.084;2023-10-13T04:22:35;18.80;85.30
42097;DHT22;27754;45.414;11.084;2023-10-13T04:25:27;18.80;85.20
42097;DHT22;27754;45.414;11.084;2023-10-13T04:28:08;18.70;85.00
42097;DHT22;27754;45.414;11.084;2023-10-13T04:30:50;18.70;85.40
42097;DHT22;27754;45.414;11.084;2023-10-13T04:33:26;18.60;85.80
42097;DHT22;27754;45.414;11.084;2023-10-13T04:36:13;18.60;85.60
42097;DHT22;27754;45.414;11.084;2023-10-13T04:38:50;18.60;85.80
42097;DHT22;27754;45.414;11.084;2023-10-13T04:41:28;18.50;85.60
42097;DHT22;27754;45.414;11.084;2023-10-13T04:44:16;18.60;85.70
42097;DHT22;27754;45.414;11.084;2023-10-13T04:46:50;18.60;85.70
42097;DHT22;27754;45.414;11.084;2023-10-13T04:49:22;18.60;85.50
42097;DHT22;27754;45.414;11.084;2023-10-13T04:52:03;18.70;85.50
42097;DHT22;27754;45.414;11.084;2023-10-13T04:54:46;18.80;85.20
42097;DHT22;27754;45.414;11.084;2023-10-13T04:57:22;18.80;84.90
42097;DHT22;27754;45.414;11.084;2023-10-13T05:00:08;18.80;84.60
42097;DHT22;27754;45.414;11.084;2023-10-13T05:02:37;18.80;84.70
42097;DHT22;27754;45.414;11.084;2023-10-13T05:05:13;18.80;84.90
42097;DHT22;27754;45.414;11.084;2023-10-13T05:07:41;18.80;84.40
42097;DHT22;27754;45.414;11.084;2023-10-13T05:10:27;18.80;84.50
42097;DHT22;27754;45.414;11.084;2023-10-13T05:13:32;18.80;84.40
42097;DHT22;27754;45.414;11.084;2023-10-13T05:16:18;18.80;84.30
42097;DHT22;27754;45.414;11.084;2023-10-13T05:19:04;18.90;84.40
42097;DHT22;27754;45.414;11.084;2023-10-13T05:21:49;18.90;84.30
42097;DHT22;27754;45.414;11.084;2023-10-13T05:24:35;18.90;84.30
42097;DHT22;27754;45.414;11.084;2023-10-13T05:27:21;18.90;84.50
42097;DHT22;27754;45.414;11.084;2023-10-13T05:30:07;18.90;84.60
42097;DHT22;27754;45.414;11.084;2023-10-13T05:32:52;19.00;84.60
42097;DHT22;27754;45.414;11.084;2023-10-13T05:35:38;18.90;84.70
42097;DHT22;27754;45.414;11.084;2023-10-13T05:38:23;19.00;84.80
42097;DHT22;27754;45.414;11.084;2023-10-13T05:41:09;19.00;84.80
42097;DHT22;27754;45.414;11.084;2023-10-13T05:43:54;19.10;84.90
42097;DHT22;27754;45.414;11.084;2023-10-13T05:46:40;19.00;85.10
42097;DHT22;27754;45.414;11.084;2023-10-13T05:49:16;19.00;85.20
42097;DHT22;27754;45.414;11.084;2023-10-13T05:51:44;19.00;85.10
42097;DHT22;27754;45.414;11.084;2023-10-13T05:54:46;19.10;85.10
42097;DHT22;27754;45.414;11.084;2023-10-13T05:57:32;19.10;85.10
42097;DHT22;27754;45.414;11.084;2023-10-13T06:00:17;19.10;85.00
42097;DHT22;27754;45.414;11.084;2023-10-13T06:03:03;19.10;85.20
42097;DHT22;27754;45.414;11.084;2023-10-13T06:06:07;19.10;85.20
42097;DHT22;27754;45.414;11.084;2023-10-13T06:09:06;19.20;85.20
42097;DHT22;27754;45.414;11.084;2023-10-13T06:11:52;19.20;85.20
42097;DHT22;27754;45.414;11.084;2023-10-13T06:14:38;19.20;85.10
42097;DHT22;27754;45.414;11.084;2023-10-13T06:17:24;19.20;84.90
42097;DHT22;27754;45.414;11.084;2023-10-13T06:20:09;19.20;84.90
42097;DHT22;27754;45.414;11.084;2023-10-13T06:22:55;19.20;84.90
42097;DHT22;27754;45.414;11.084;2023-10-13T06:25:41;19.30;84.90
42097;DHT22;27754;45.414;11.084;2023-10-13T06:28:27;19.30;84.60
42097;DHT22;27754;45.414;11.084;2023-10-13T06:31:10;19.30;84.40
42097;DHT22;27754;45.414;11.084;2023-10-13T06:33:48;19.30;84.20
42097;DHT22;27754;45.414;11.084;2023-10-13T06:36:15;19.40;83.90
42097;DHT22;27754;45.414;11.084;2023-10-13T06:38:44;19.40;84.00
42097;DHT22;27754;45.414;11.084;2023-10-13T06:41:11;19.40;83.90
42097;DHT22;27754;45.414;11.084;2023-10-13T06:43:47;19.50;84.00
42097;DHT22;27754;45.414;11.084;2023-10-13T06:46:27;19.40;83.90
42097;DHT22;27754;45.414;11.084;2023-10-13T06:48:55;19.50;83.80
42097;DHT22;27754;45.414;11.084;2023-10-13T06:51:26;19.60;83.90
42097;DHT22;27754;45.414;11.084;2023-10-13T06:54:06;19.60;83.70
42097;DHT22;27754;45.414;11.084;2023-10-13T06:56:38;19.60;83.70
42097;DHT22;27754;45.414;11.084;2023-10-13T06:59:07;19.60;83.80
42097;DHT22;27754;45.414;11.084;2023-10-13T07:01:34;19.60;83.50
42097;DHT22;27754;45.414;11.084;2023-10-13T07:04:09;19.60;83.30
42097;DHT22;27754;45.414;11.084;2023-10-13T07:06:44;19.70;83.30
42097;DHT22;27754;45.414;11.084;2023-10-13T07:09:18;19.70;83.40
42097;DHT22;27754;45.414;11.084;2023-10-13T07:12:05;19.80;83.40
42097;DHT22;27754;45.414;11.084;2023-10-13T07:14:47;19.80;83.50
42097;DHT22;27754;45.414;11.084;2023-10-13T07:17:35;19.80;83.10
42097;DHT22;27754;45.414;11.084;2023-10-13T07:20:07;19.90;82.60
42097;DHT22;27754;45.414;11.084;2023-10-13T07:22:52;19.90;82.40
42097;DHT22;27754;45.414;11.084;2023-10-13T07:25:33;20.00;82.30
42097;DHT22;27754;45.414;11.084;2023-10-13T07:28:04;20.10;82.10
42097;DHT22;27754;45.414;11.084;2023-10-13T07:30:33;20.20;81.90
42097;DHT22;27754;45.414;11.084;2023-10-13T07:33:06;20.20;81.80
42097;DHT22;27754;45.414;11.084;2023-10-13T07:35:33;20.30;81.80
42097;DHT22;27754;45.414;11.084;2023-10-13T07:38:02;20.40;81.60
42097;DHT22;27754;45.414;11.084;2023-10-13T07:40:34;20.40;81.50
42097;DHT22;27754;45.414;11.084;2023-10-13T07:43:01;20.50;81.20
42097;DHT22;27754;45.414;11.084;2023-10-13T07:45:30;20.50;81.00
42097;DHT22;27754;45.414;11.084;2023-10-13T07:48:04;20.70;80.80
42097;DHT22;27754;45.414;11.084;2023-10-13T07:50:39;20.80;80.50
42097;DHT22;27754;45.414;11.084;2023-10-13T07:53:06;20.80;80.30
42097;DHT22;27754;45.414;11.084;2023-10-13T07:55:46;20.90;80.10
42097;DHT22;27754;45.414;11.084;2023-10-13T07:58:23;21.10;79.90
42097;DHT22;27754;45.414;11.084;2023-10-13T08:00:53;21.10;79.50
42097;DHT22;27754;45.414;11.084;2023-10-13T08:03:41;21.30;79.00
42097;DHT22;27754;45.414;11.084;2023-10-13T08:06:12;21.30;78.00
42097;DHT22;27754;45.414;11.084;2023-10-13T08:08:39;21.40;78.00
42097;DHT22;27754;45.414;11.084;2023-10-13T08:11:08;21.40;78.10
42097;DHT22;27754;45.414;11.084;2023-10-13T08:13:38;21.60;78.00
42097;DHT22;27754;45.414;11.084;2023-10-13T08:16:30;21.60;77.80
42097;DHT22;27754;45.414;11.084;2023-10-13T08:19:20;21.80;77.60
42097;DHT22;27754;45.414;11.084;2023-10-13T08:21:47;21.80;77.10
42097;DHT22;27754;45.414;11.084;2023-10-13T08:24:41;21.80;76.70
42097;DHT22;27754;45.414;11.084;2023-10-13T08:27:08;21.90;76.20
42097;DHT22;27754;45.414;11.084;2023-10-13T08:29:44;22.00;75.80
42097;DHT22;27754;45.414;11.084;2023-10-13T08:32:40;22.20;75.80
42097;DHT22;27754;45.414;11.084;2023-10-13T08:35:24;22.30;75.70
42097;DHT22;27754;45.414;11.084;2023-10-13T08:38:04;22.40;75.80
42097;DHT22;27754;45.414;11.084;2023-10-13T08:40:51;22.50;75.40
42097;DHT22;27754;45.414;11.084;2023-10-13T08:43:37;22.60;74.90
42097;DHT22;27754;45.414;11.084;2023-10-13T08:46:10;22.80;75.00
42097;DHT22;27754;45.414;11.084;2023-10-13T08:48:55;22.90;74.90
42097;DHT22;27754;45.414;11.084;2023-10-13T08:51:33;22.90;74.60
42097;DHT22;27754;45.414;11.084;2023-10-13T08:54:13;22.90;74.60
42097;DHT22;27754;45.414;11.084;2023-10-13T08:57:00;22.90;73.80
42097;DHT22;27754;45.414;11.084;2023-10-13T08:59:46;22.90;74.10
42097;DHT22;27754;45.414;11.084;2023-10-13T09:02:23;23.10;73.50
42097;DHT22;27754;45.414;11.084;2023-10-13T09:05:10;23.00;73.70
42097;DHT22;27754;45.414;11.084;2023-10-13T09:07:57;23.10;73.30
42097;DHT22;27754;45.414;11.084;2023-10-13T09:10:35;23.10;72.90
42097;DHT22;27754;45.414;11.084;2023-10-13T09:13:11;23.20;73.10
42097;DHT22;27754;45.414;11.084;2023-10-13T09:15:45;23.30;73.10
42097;DHT22;27754;45.414;11.084;2023-10-13T09:18:28;23.30;72.80
42097;DHT22;27754;45.414;11.084;2023-10-13T09:21:16;23.40;72.40
42097;DHT22;27754;45.414;11.084;2023-10-13T09:24:14;23.50;72.00
42097;DHT22;27754;45.414;11.084;2023-10-13T09:26:57;23.50;72.10
42097;DHT22;27754;45.414;11.084;2023-10-13T09:29:27;23.50;72.00
42097;DHT22;27754;45.414;11.084;2023-10-13T09:32:00;23.50;72.40
42097;DHT22;27754;45.414;11.084;2023-10-13T09:34:27;23.40;72.40
42097;DHT22;27754;45.414;11.084;2023-10-13T09:36:59;23.40;72.50
42097;DHT22;27754;45.414;11.084;2023-10-13T09:39:26;23.40;73.00
42097;DHT22;27754;45.414;11.084;2023-10-13T09:42:12;23.50;73.20
42097;DHT22;27754;45.414;11.084;2023-10-13T09:44:43;23.60;72.30
42097;DHT22;27754;45.414;11.084;2023-10-13T09:47:19;23.70;72.50
42097;DHT22;27754;45.414;11.084;2023-10-13T09:49:51;23.80;72.50
42097;DHT22;27754;45.414;11.084;2023-10-13T09:52:24;24.00;72.10
42097;DHT22;27754;45.414;11.084;2023-10-13T09:57:39;24.20;70.30
42097;DHT22;27754;45.414;11.084;2023-10-13T10:00:20;24.30;70.30
42097;DHT22;27754;45.414;11.084;2023-10-13T10:03:11;24.30;70.40
42097;DHT22;27754;45.414;11.084;2023-10-13T10:06:06;24.40;70.00
42097;DHT22;27754;45.414;11.084;2023-10-13T10:08:43;24.50;70.60
42097;DHT22;27754;45.414;11.084;2023-10-13T10:11:27;24.50;70.90
42097;DHT22;27754;45.414;11.084;2023-10-13T10:19:13;24.60;68.60
42097;DHT22;27754;45.414;11.084;2023-10-13T10:21:40;24.70;67.90
42097;DHT22;27754;45.414;11.084;2023-10-13T10:24:14;24.70;68.50
42097;DHT22;27754;45.414;11.084;2023-10-13T10:26:51;24.70;69.10
42097;DHT22;27754;45.414;11.084;2023-10-13T10:29:20;24.70;68.70
42097;DHT22;27754;45.414;11.084;2023-10-13T10:31:48;24.70;68.30
42097;DHT22;27754;45.414;11.084;2023-10-13T10:34:15;24.80;68.70
42097;DHT22;27754;45.414;11.084;2023-10-13T10:36:53;24.80;68.80
42097;DHT22;27754;45.414;11.084;2023-10-13T10:39:20;24.90;69.40
42097;DHT22;27754;45.414;11.084;2023-10-13T10:42:10;25.00;68.60
42097;DHT22;27754;45.414;11.084;2023-10-13T10:44:44;24.90;68.30
42097;DHT22;27754;45.414;11.084;2023-10-13T10:47:14;24.60;68.80
42097;DHT22;27754;45.414;11.084;2023-10-13T10:50:04;24.60;69.30
42097;DHT22;27754;45.414;11.084;2023-10-13T10:52:35;24.80;69.20
42097;DHT22;27754;45.414;11.084;2023-10-13T10:55:04;24.90;68.60
42097;DHT22;27754;45.414;11.084;2023-10-13T10:57:34;24.90;68.40
42097;DHT22;27754;45.414;11.084;2023-10-13T11:00:04;24.80;68.70
42097;DHT22;27754;45.414;11.084;2023-10-13T11:02:41;24.90;68.20
42097;DHT22;27754;45.414;11.084;2023-10-13T11:05:08;25.00;67.20
42097;DHT22;27754;45.414;11.084;2023-10-13T11:07:45;24.90;67.70
42097;DHT22;27754;45.414;11.084;2023-10-13T11:10:16;24.70;68.60
42097;DHT22;27754;45.414;11.084;2023-10-13T11:12:58;24.80;68.10
42097;DHT22;27754;45.414;11.084;2023-10-13T11:15:43;24.90;67.30
42097;DHT22;27754;45.414;11.084;2023-10-13T11:18:12;25.10;67.10
42097;DHT22;27754;45.414;11.084;2023-10-13T11:20:49;25.10;66.30
42097;DHT22;27754;45.414;11.084;2023-10-13T11:23:22;25.10;66.20
42097;DHT22;27754;45.414;11.084;2023-10-13T11:25:58;25.10;66.00
42097;DHT22;27754;45.414;11.084;2023-10-13T11:28:26;25.20;65.90
42097;DHT22;27754;45.414;11.084;2023-10-13T11:30:56;25.20;65.60
42097;DHT22;27754;45.414;11.084;2023-10-13T11:33:26;25.10;65.90
42097;DHT22;27754;45.414;11.084;2023-10-13T11:35:56;25.10;66.00
42097;DHT22;27754;45.414;11.084;2023-10-13T11:38:31;24.90;65.80
42097;DHT22;27754;45.414;11.084;2023-10-13T11:41:21;25.00;66.20
42097;DHT22;27754;45.414;11.084;2023-10-13T11:43:49;24.90;66.10
42097;DHT22;27754;45.414;11.084;2023-10-13T11:46:24;25.00;65.90
42097;DHT22;27754;45.414;11.084;2023-10-13T11:49:04;25.30;66.00
42097;DHT22;27754;45.414;11.084;2023-10-13T11:51:54;25.40;65.60
42097;DHT22;27754;45.414;11.084;2023-10-13T11:54:29;25.50;65.10
42097;DHT22;27754;45.414;11.084;2023-10-13T11:56:56;25.40;64.90
42097;DHT22;27754;45.414;11.084;2023-10-13T11:59:25;25.40;64.90
42097;DHT22;27754;45.414;11.084;2023-10-13T12:01:54;25.40;65.10
42097;DHT22;27754;45.414;11.084;2023-10-13T12:04:39;25.50;64.40
42097;DHT22;27754;45.414;11.084;2023-10-13T12:07:21;25.80;63.90
42097;DHT22;27754;45.414;11.084;2023-10-13T12:10:07;25.80;64.20
42097;DHT22;27754;45.414;11.084;2023-10-13T12:12:42;25.80;63.80
42097;DHT22;27754;45.414;11.084;2023-10-13T12:15:11;25.70;64.50
42097;DHT22;27754;45.414;11.084;2023-10-13T12:18:03;25.70;63.80
42097;DHT22;27754;45.414;11.084;2023-10-13T12:20:30;25.90;62.70
42097;DHT22;27754;45.414;11.084;2023-10-13T12:23:02;25.80;63.00
42097;DHT22;27754;45.414;11.084;2023-10-13T12:25:42;25.90;62.80
42097;DHT22;27754;45.414;11.084;2023-10-13T12:28:24;25.80;63.30
42097;DHT22;27754;45.414;11.084;2023-10-13T12:30:53;25.80;62.90
42097;DHT22;27754;45.414;11.084;2023-10-13T12:33:21;25.80;62.80
42097;DHT22;27754;45.414;11.084;2023-10-13T12:35:57;25.90;62.60
42097;DHT22;27754;45.414;11.084;2023-10-13T12:38:30;25.90;62.90
42097;DHT22;27754;45.414;11.084;2023-10-13T12:41:06;25.90;62.70
42097;DHT22;27754;45.414;11.084;2023-10-13T12:44:01;25.90;63.30
42097;DHT22;27754;45.414;11.084;2023-10-13T12:46:47;25.90;62.80
42097;DHT22;27754;45.414;11.084;2023-10-13T12:49:33;25.90;60.80
42097;DHT22;27754;45.414;11.084;2023-10-13T12:52:11;25.80;61.40
42097;DHT22;27754;45.414;11.084;2023-10-13T12:54:52;25.90;61.30
42097;DHT22;27754;45.414;11.084;2023-10-13T12:57:28;25.80;61.70
42097;DHT22;27754;45.414;11.084;2023-10-13T12:59:55;25.80;61.70
42097;DHT22;27754;45.414;11.084;2023-10-13T13:02:23;25.70;60.50
42097;DHT22;27754;45.414;11.084;2023-10-13T13:04:52;25.70;59.60
42097;DHT22;27754;45.414;11.084;2023-10-13T13:07:39;25.80;59.80
42097;DHT22;27754;45.414;11.084;2023-10-13T13:10:19;25.80;58.90
42097;DHT22;27754;45.414;11.084;2023-10-13T13:12:47;26.00;58.50
42097;DHT22;27754;45.414;11.084;2023-10-13T13:15:14;26.00;57.80
42097;DHT22;27754;45.414;11.084;2023-10-13T13:17:41;25.90;57.40
42097;DHT22;27754;45.414;11.084;2023-10-13T13:20:08;26.00;57.60
42097;DHT22;27754;45.414;11.084;2023-10-13T13:22:55;26.10;57.30
42097;DHT22;27754;45.414;11.084;2023-10-13T13:25:22;26.30;56.80
42097;DHT22;27754;45.414;11.084;2023-10-13T13:27:52;26.40;55.90
42097;DHT22;27754;45.414;11.084;2023-10-13T13:30:19;26.50;55.00
42097;DHT22;27754;45.414;11.084;2023-10-13T13:32:47;26.50;55.30
42097;DHT22;27754;45.414;11.084;2023-10-13T13:35:14;26.60;55.40
42097;DHT22;27754;45.414;11.084;2023-10-13T13:37:45;26.60;55.80
42097;DHT22;27754;45.414;11.084;2023-10-13T13:40:12;26.40;56.00
42097;DHT22;27754;45.414;11.084;2023-10-13T13:42:42;26.30;56.20
42097;DHT22;27754;45.414;11.084;2023-10-13T13:45:13;26.30;56.10
42097;DHT22;27754;45.414;11.084;2023-10-13T13:47:54;26.30;55.80
42097;DHT22;27754;45.414;11.084;2023-10-13T13:50:25;25.90;56.20
42097;DHT22;27754;45.414;11.084;2023-10-13T13:52:56;26.00;56.50
42097;DHT22;27754;45.414;11.084;2023-10-13T13:55:24;25.90;56.30
42097;DHT22;27754;45.414;11.084;2023-10-13T13:57:51;25.90;56.90
42097;DHT22;27754;45.414;11.084;2023-10-13T14:00:18;25.80;56.90
42097;DHT22;27754;45.414;11.084;2023-10-13T14:02:55;25.70;57.20
42097;DHT22;27754;45.414;11.084;2023-10-13T14:05:22;25.70;57.60
42097;DHT22;27754;45.414;11.084;2023-10-13T14:07:49;25.60;57.90
42097;DHT22;27754;45.414;11.084;2023-10-13T14:10:17;25.60;57.80
42097;DHT22;27754;45.414;11.084;2023-10-13T14:13:20;25.80;57.10
42097;DHT22;27754;45.414;11.084;2023-10-13T14:15:49;25.90;56.70
42097;DHT22;27754;45.414;11.084;2023-10-13T14:18:22;26.10;56.10
42097;DHT22;27754;45.414;11.084;2023-10-13T14:20:57;26.30;55.40
42097;DHT22;27754;45.414;11.084;2023-10-13T14:23:29;26.10;55.60
42097;DHT22;27754;45.414;11.084;2023-10-13T14:25:56;26.10;56.20
42097;DHT22;27754;45.414;11.084;2023-10-13T14:28:25;26.10;55.80
42097;DHT22;27754;45.414;11.084;2023-10-13T14:31:04;26.10;56.00
42097;DHT22;27754;45.414;11.084;2023-10-13T14:33:36;26.10;55.90
42097;DHT22;27754;45.414;11.084;2023-10-13T14:36:03;26.10;55.90
42097;DHT22;27754;45.414;11.084;2023-10-13T14:38:31;26.10;56.00
42097;DHT22;27754;45.414;11.084;2023-10-13T14:40:58;26.20;55.80
42097;DHT22;27754;45.414;11.084;2023-10-13T14:43:25;26.00;56.10
42097;DHT22;27754;45.414;11.084;2023-10-13T14:45:53;25.90;56.60
42097;DHT22;27754;45.414;11.084;2023-10-13T14:48:20;25.80;56.80
42097;DHT22;27754;45.414;11.084;2023-10-13T14:50:50;25.60;57.40
42097;DHT22;27754;45.414;11.084;2023-10-13T14:53:17;25.50;57.80
42097;DHT22;27754;45.414;11.084;2023-10-13T14:55:46;25.40;58.30
42097;DHT22;27754;45.414;11.084;2023-10-13T14:58:13;25.30;58.70
42097;DHT22;27754;45.414;11.084;2023-10-13T15:00:42;25.30;59.00
42097;DHT22;27754;45.414;11.084;2023-10-13T15:03:12;25.30;59.20
42097;DHT22;27754;45.414;11.084;2023-10-13T15:05:38;25.30;59.60
42097;DHT22;27754;45.414;11.084;2023-10-13T15:08:05;25.20;60.00
42097;DHT22;27754;45.414;11.084;2023-10-13T15:10:33;25.20;59.70
42097;DHT22;27754;45.414;11.084;2023-10-13T15:13:03;25.30;59.90
42097;DHT22;27754;45.414;11.084;2023-10-13T15:15:31;25.30;59.50
42097;DHT22;27754;45.414;11.084;2023-10-13T15:17:58;25.30;59.40
42097;DHT22;27754;45.414;11.084;2023-10-13T15:20:25;25.40;58.30
42097;DHT22;27754;45.414;11.084;2023-10-13T15:22:53;25.50;58.30
42097;DHT22;27754;45.414;11.084;2023-10-13T15:25:26;25.60;57.80
42097;DHT22;27754;45.414;11.084;2023-10-13T15:27:59;25.50;58.10
42097;DHT22;27754;45.414;11.084;2023-10-13T15:30:30;25.50;58.30
42097;DHT22;27754;45.414;11.084;2023-10-13T15:33:19;25.30;59.10
42097;DHT22;27754;45.414;11.084;2023-10-13T15:35:47;25.20;59.10
42097;DHT22;27754;45.414;11.084;2023-10-13T15:38:14;25.10;59.00
42097;DHT22;27754;45.414;11.084;2023-10-13T15:40:42;24.90;59.60
42097;DHT22;27754;45.414;11.084;2023-10-13T15:43:09;24.80;60.40
42097;DHT22;27754;45.414;11.084;2023-10-13T15:45:37;24.70;60.80
42097;DHT22;27754;45.414;11.084;2023-10-13T15:48:09;24.60;61.30
42097;DHT22;27754;45.414;11.084;2023-10-13T15:50:45;24.40;61.60
42097;DHT22;27754;45.414;11.084;2023-10-13T15:53:12;24.30;61.80
42097;DHT22;27754;45.414;11.084;2023-10-13T15:55:42;24.30;62.10
42097;DHT22;27754;45.414;11.084;2023-10-13T15:58:12;24.10;62.40
42097;DHT22;27754;45.414;11.084;2023-10-13T16:00:40;24.10;62.90
42097;DHT22;27754;45.414;11.084;2023-10-13T16:03:08;23.90;63.10
42097;DHT22;27754;45.414;11.084;2023-10-13T16:05:39;23.80;63.50
42097;DHT22;27754;45.414;11.084;2023-10-13T16:08:09;23.80;64.00
42097;DHT22;27754;45.414;11.084;2023-10-13T16:10:40;23.70;64.50
42097;DHT22;27754;45.414;11.084;2023-10-13T16:13:07;23.60;64.90
42097;DHT22;27754;45.414;11.084;2023-10-13T16:15:42;23.60;65.40